Wetterdaten: Woche 26.12.05 - 01.01.06 (KW52)
Datum Zeit Temperatur Luftfeuchte Luftdruck Niederschlag Wind Richtung Sonne Solar Taupunkt Windchill
26.12.2005 00:00 1.0 C 87 % 1018.4 hPa 0.0 l/m 1.1 km/h (1 Bft) O 0.00 h 0 W/m -0.9 C 0.7 C
26.12.2005 01:00 0.9 C 88 % 1018.5 hPa 0.0 l/m 1.0 km/h (0 Bft) O 0.00 h 0 W/m -0.9 C 0.9 C
26.12.2005 02:00 0.7 C 88 % 1017.5 hPa 0.0 l/m 1.0 km/h (0 Bft) NW 0.00 h 0 W/m -1.1 C 0.7 C
26.12.2005 03:00 0.7 C 88 % 1017.4 hPa 0.0 l/m 0.0 km/h (0 Bft) N 0.00 h 0 W/m -1.1 C 0.7 C
26.12.2005 04:00 0.7 C 88 % 1016.4 hPa 0.0 l/m 0.0 km/h (0 Bft) N 0.00 h 0 W/m -1.1 C 0.7 C
26.12.2005 05:00 0.6 C 88 % 1016.3 hPa 0.0 l/m 0.2 km/h (0 Bft) NW 0.00 h 0 W/m -1.1 C 0.6 C
26.12.2005 06:00 0.4 C 89 % 1015.4 hPa 0.0 l/m 0.2 km/h (0 Bft) NW 0.00 h 0 W/m -1.2 C 0.4 C
26.12.2005 07:00 0.3 C 90 % 1015.4 hPa 0.0 l/m 0.0 km/h (0 Bft) N 0.00 h 0 W/m -1.1 C 0.3 C
26.12.2005 08:00 0.3 C 90 % 1014.6 hPa 0.0 l/m 0.0 km/h (0 Bft) N 0.00 h 3 W/m -1.1 C 0.3 C
26.12.2005 09:00 0.3 C 92 % 1014.4 hPa 0.3 l/m 0.0 km/h (0 Bft) N 0.00 h 9 W/m -0.8 C 0.3 C
26.12.2005 10:00 0.4 C 94 % 1014.4 hPa 0.6 l/m 0.1 km/h (0 Bft) NW 0.00 h 48 W/m -0.4 C 0.4 C
26.12.2005 11:00 1.3 C 90 % 1014.0 hPa 0.0 l/m 0.0 km/h (0 Bft) N 0.00 h 132 W/m -0.2 C 1.3 C
26.12.2005 12:00 1.5 C 81 % 1013.0 hPa 0.0 l/m 0.5 km/h (0 Bft) NW 0.00 h 108 W/m -1.3 C 1.4 C
26.12.2005 13:00 1.8 C 77 % 1012.1 hPa 0.0 l/m 0.8 km/h (0 Bft) W-SW 0.00 h 114 W/m -1.9 C 1.6 C
26.12.2005 14:00 1.9 C 72 % 1011.2 hPa 0.0 l/m 0.8 km/h (0 Bft) W 0.00 h 81 W/m -2.6 C 1.7 C
26.12.2005 15:00 1.9 C 72 % 1011.0 hPa 0.0 l/m 0.5 km/h (0 Bft) NW 0.00 h 50 W/m -2.5 C 1.8 C
26.12.2005 16:00 1.5 C 76 % 1011.1 hPa 0.0 l/m 0.4 km/h (0 Bft) SO 0.00 h 8 W/m -2.3 C 1.4 C
26.12.2005 17:00 1.1 C 79 % 1010.4 hPa 0.0 l/m 0.5 km/h (0 Bft) SO 0.00 h 0 W/m -2.1 C 1.1 C
26.12.2005 18:00 0.1 C 83 % 1010.2 hPa 0.0 l/m 5.8 km/h (2 Bft) SO 0.00 h 0 W/m -2.5 C -1.6 C
26.12.2005 19:00 -0.6 C 86 % 1010.4 hPa 0.0 l/m 2.2 km/h (1 Bft) SO 0.00 h 0 W/m -2.6 C -1.2 C
26.12.2005 20:00 -1.7 C 87 % 1010.5 hPa 0.0 l/m 0.4 km/h (0 Bft) SO 0.00 h 0 W/m -3.6 C -1.7 C
26.12.2005 21:00 -1.2 C 90 % 1010.4 hPa 0.0 l/m 0.8 km/h (0 Bft) SO 0.00 h 0 W/m -2.6 C -1.3 C
26.12.2005 22:00 -1.7 C 90 % 1009.8 hPa 0.0 l/m 0.2 km/h (0 Bft) SO 0.00 h 0 W/m -3.2 C -1.7 C
26.12.2005 23:00 -2.0 C 91 % 1009.4 hPa 0.0 l/m 0.0 km/h (0 Bft) N 0.00 h 0 W/m -3.3 C -2.0 C
27.12.2005 00:00 -1.5 C 90 % 1008.4 hPa 0.0 l/m 0.0 km/h (0 Bft) N 0.00 h 0 W/m -2.9 C -1.5 C
27.12.2005 01:00 -1.3 C 91 % 1008.4 hPa 0.0 l/m 0.0 km/h (0 Bft) N 0.00 h 0 W/m -2.6 C -1.3 C
27.12.2005 02:00 -1.2 C 90 % 1007.4 hPa 0.0 l/m 0.0 km/h (0 Bft) N 0.00 h 0 W/m -2.6 C -1.2 C
27.12.2005 03:00 -1.3 C 90 % 1007.3 hPa 0.0 l/m 0.0 km/h (0 Bft) N 0.00 h 0 W/m -2.6 C -1.3 C
27.12.2005 04:00 -2.6 C 92 % 1006.6 hPa 0.0 l/m 0.0 km/h (0 Bft) N 0.00 h 0 W/m -3.8 C -2.6 C
27.12.2005 05:00 -3.1 C 91 % 1006.5 hPa 0.0 l/m 0.2 km/h (0 Bft) SO 0.00 h 0 W/m -4.3 C -3.1 C
27.12.2005 06:00 -2.8 C 92 % 1005.5 hPa 0.0 l/m 1.6 km/h (1 Bft) SO 0.00 h 0 W/m -3.9 C -3.1 C
27.12.2005 07:00 -2.7 C 92 % 1005.5 hPa 0.0 l/m 4.7 km/h (1 Bft) O-SO 0.00 h 0 W/m -3.8 C -4.5 C
27.12.2005 08:00 -2.8 C 90 % 1005.5 hPa 0.0 l/m 1.9 km/h (1 Bft) O-SO 0.00 h 9 W/m -4.2 C -3.5 C
27.12.2005 09:00 -2.1 C 85 % 1005.4 hPa 0.0 l/m 4.8 km/h (1 Bft) O-SO 0.00 h 26 W/m -4.3 C -3.9 C
27.12.2005 10:00 -1.6 C 84 % 1005.3 hPa 0.0 l/m 0.4 km/h (0 Bft) O-SO 0.00 h 90 W/m -4.0 C -1.7 C
27.12.2005 11:00 -1.2 C 82 % 1005.2 hPa 0.0 l/m 0.0 km/h (0 Bft) N 0.00 h 90 W/m -3.8 C -1.2 C
27.12.2005 12:00 -0.8 C 79 % 1005.0 hPa 0.0 l/m 0.0 km/h (0 Bft) N 0.00 h 96 W/m -3.9 C -0.8 C
27.12.2005 13:00 -0.7 C 78 % 1004.1 hPa 0.0 l/m 0.0 km/h (0 Bft) N 0.00 h 53 W/m -4.1 C -0.7 C
27.12.2005 14:00 -0.7 C 81 % 1004.1 hPa 0.0 l/m 0.0 km/h (0 Bft) N 0.00 h 49 W/m -3.6 C -0.7 C
27.12.2005 15:00 -1.1 C 84 % 1004.2 hPa 0.3 l/m 0.0 km/h (0 Bft) N 0.00 h 23 W/m -3.5 C -1.1 C
27.12.2005 16:00 -1.3 C 88 % 1005.1 hPa 0.3 l/m 0.0 km/h (0 Bft) N 0.00 h 5 W/m -3.0 C -1.3 C
27.12.2005 17:00 -1.8 C 88 % 1005.3 hPa 0.6 l/m 11.1 km/h (2 Bft) W-NW 0.00 h 0 W/m -3.5 C -4.7 C
27.12.2005 18:00 -2.5 C 82 % 1005.6 hPa 0.3 l/m 9.3 km/h (2 Bft) NW 0.00 h 0 W/m -5.2 C -5.7 C
27.12.2005 19:00 -2.8 C 73 % 1006.5 hPa 0.0 l/m 9.9 km/h (2 Bft) NW 0.00 h 0 W/m -6.9 C -6.1 C
27.12.2005 20:00 -3.4 C 70 % 1006.6 hPa 0.0 l/m 14.3 km/h (3 Bft) NW 0.00 h 0 W/m -8.1 C -8.1 C
27.12.2005 21:00 -3.7 C 66 % 1007.3 hPa 0.0 l/m 18.3 km/h (3 Bft) W-NW 0.00 h 0 W/m -9.1 C -9.3 C
27.12.2005 22:00 -3.6 C 64 % 1007.7 hPa 0.0 l/m 18.2 km/h (3 Bft) NW 0.00 h 0 W/m -9.4 C -9.0 C
27.12.2005 23:00 -3.9 C 67 % 1007.7 hPa 0.0 l/m 20.4 km/h (4 Bft) W-NW 0.00 h 0 W/m -9.1 C -10.0 C
28.12.2005 00:00 -4.7 C 70 % 1007.8 hPa 0.0 l/m 13.5 km/h (3 Bft) W-NW 0.00 h 0 W/m -9.3 C -9.8 C
28.12.2005 01:00 -4.8 C 72 % 1007.9 hPa 0.0 l/m 9.8 km/h (2 Bft) W-NW 0.00 h 0 W/m -9.1 C -8.8 C
28.12.2005 02:00 -5.0 C 71 % 1007.9 hPa 0.0 l/m 12.2 km/h (2 Bft) W-NW 0.00 h 0 W/m -9.4 C -9.7 C
28.12.2005 03:00 -5.1 C 70 % 1007.9 hPa 0.0 l/m 16.1 km/h (3 Bft) W-NW 0.00 h 0 W/m -9.6 C -10.9 C
28.12.2005 04:00 -5.4 C 68 % 1007.9 hPa 0.0 l/m 12.0 km/h (2 Bft) W-NW 0.00 h 0 W/m -10.3 C -10.1 C
28.12.2005 05:00 -5.7 C 70 % 1008.0 hPa 0.0 l/m 12.2 km/h (2 Bft) W-NW 0.00 h 0 W/m -10.2 C -10.7 C
28.12.2005 06:00 -6.0 C 71 % 1008.0 hPa 0.0 l/m 8.8 km/h (2 Bft) W-NW 0.00 h 0 W/m -10.4 C -9.7 C
28.12.2005 07:00 -6.2 C 70 % 1008.3 hPa 0.0 l/m 1.6 km/h (1 Bft) W-NW 0.00 h 0 W/m -10.7 C -6.9 C
28.12.2005 08:00 -6.1 C 73 % 1009.1 hPa 0.0 l/m 0.6 km/h (0 Bft) W-NW 0.03 h 21 W/m -10.1 C -6.3 C
28.12.2005 09:00 -5.8 C 69 % 1009.1 hPa 0.0 l/m 1.3 km/h (1 Bft) SO 0.00 h 57 W/m -10.6 C -6.1 C
28.12.2005 10:00 -5.2 C 67 % 1009.2 hPa 0.0 l/m 1.9 km/h (1 Bft) SO 0.00 h 105 W/m -10.3 C -5.7 C
28.12.2005 11:00 -4.6 C 65 % 1009.8 hPa 0.0 l/m 3.9 km/h (1 Bft) W 0.00 h 136 W/m -10.1 C -5.7 C
28.12.2005 12:00 -4.5 C 65 % 1009.0 hPa 0.0 l/m 11.1 km/h (2 Bft) W-NW 0.00 h 153 W/m -10.1 C -8.9 C
28.12.2005 13:00 -4.5 C 65 % 1008.9 hPa 0.0 l/m 12.3 km/h (3 Bft) W 0.00 h 131 W/m -10.0 C -9.2 C
28.12.2005 14:00 -4.5 C 69 % 1008.9 hPa 0.0 l/m 11.4 km/h (2 Bft) W 0.00 h 100 W/m -9.4 C -9.0 C
28.12.2005 15:00 -4.5 C 70 % 1009.5 hPa 0.0 l/m 14.0 km/h (3 Bft) W-NW 0.00 h 45 W/m -9.2 C -9.7 C
28.12.2005 16:00 -4.8 C 70 % 1009.9 hPa 0.0 l/m 13.2 km/h (3 Bft) W-NW 0.00 h 11 W/m -9.4 C -9.7 C
28.12.2005 17:00 -5.0 C 72 % 1010.8 hPa 0.0 l/m 10.6 km/h (2 Bft) W-NW 0.00 h 0 W/m -9.3 C -9.3 C
28.12.2005 18:00 -5.1 C 74 % 1011.4 hPa 0.0 l/m 10.4 km/h (2 Bft) W-NW 0.00 h 0 W/m -9.0 C -9.1 C
28.12.2005 19:00 -5.2 C 78 % 1012.1 hPa 0.3 l/m 0.9 km/h (0 Bft) W 0.00 h 0 W/m -8.5 C -5.5 C
28.12.2005 20:00 -5.3 C 77 % 1012.1 hPa 0.0 l/m 1.2 km/h (1 Bft) W 0.00 h 0 W/m -8.7 C -5.6 C
28.12.2005 21:00 -5.5 C 78 % 1013.2 hPa 0.3 l/m 0.3 km/h (0 Bft) SO 0.00 h 0 W/m -8.7 C -5.5 C
28.12.2005 22:00 -5.6 C 79 % 1013.2 hPa 0.0 l/m 0.1 km/h (0 Bft) N 0.00 h 0 W/m -8.6 C -5.6 C
28.12.2005 23:00 -5.7 C 78 % 1013.2 hPa 0.0 l/m 0.3 km/h (0 Bft) W-SW 0.00 h 0 W/m -8.8 C -5.7 C
29.12.2005 00:00 -5.6 C 77 % 1013.2 hPa 0.0 l/m 0.2 km/h (0 Bft) N 0.00 h 0 W/m -9.0 C -5.6 C
29.12.2005 01:00 -5.8 C 76 % 1014.1 hPa 0.3 l/m 0.2 km/h (0 Bft) S-SO 0.00 h 0 W/m -9.3 C -5.8 C
29.12.2005 02:00 -5.9 C 76 % 1014.3 hPa 0.0 l/m 0.4 km/h (0 Bft) S 0.00 h 0 W/m -9.5 C -5.9 C
29.12.2005 03:00 -5.8 C 76 % 1014.5 hPa 0.0 l/m 0.2 km/h (0 Bft) N 0.00 h 0 W/m -9.3 C -5.8 C
29.12.2005 04:00 -5.8 C 78 % 1015.3 hPa 0.0 l/m 0.1 km/h (0 Bft) N 0.00 h 0 W/m -9.0 C -5.8 C
29.12.2005 05:00 -5.9 C 79 % 1015.3 hPa 0.0 l/m 0.0 km/h (0 Bft) N 0.00 h 0 W/m -9.0 C -5.9 C
29.12.2005 06:00 -5.9 C 81 % 1015.4 hPa 0.0 l/m 0.0 km/h (0 Bft) N 0.00 h 0 W/m -8.7 C -5.9 C
29.12.2005 07:00 -5.7 C 82 % 1016.3 hPa 0.0 l/m 0.6 km/h (0 Bft) SO 0.00 h 0 W/m -8.2 C -5.8 C
29.12.2005 08:00 -5.3 C 82 % 1016.3 hPa 0.0 l/m 1.7 km/h (1 Bft) SO 0.00 h 12 W/m -7.8 C -5.9 C
29.12.2005 09:00 -4.8 C 78 % 1017.2 hPa 0.0 l/m 0.6 km/h (0 Bft) W 0.00 h 35 W/m -7.9 C -4.8 C
29.12.2005 10:00 -4.3 C 77 % 1018.1 hPa 0.0 l/m 2.6 km/h (1 Bft) S-SO 0.10 h 122 W/m -7.8 C -5.0 C
29.12.2005 11:00 -3.5 C 75 % 1018.1 hPa 0.0 l/m 3.5 km/h (1 Bft) SO 0.43 h 196 W/m -7.3 C -4.8 C
29.12.2005 12:00 -3.1 C 69 % 1018.0 hPa 0.0 l/m 6.0 km/h (2 Bft) W-NW 0.00 h 123 W/m -8.0 C -5.0 C
29.12.2005 13:00 -3.1 C 66 % 1018.0 hPa 0.0 l/m 11.6 km/h (2 Bft) W-NW 0.00 h 136 W/m -8.5 C -6.9 C
29.12.2005 14:00 -2.7 C 63 % 1017.9 hPa 0.0 l/m 9.8 km/h (2 Bft) W-NW 0.03 h 118 W/m -8.7 C -6.4 C
29.12.2005 15:00 -2.9 C 65 % 1018.0 hPa 0.0 l/m 11.0 km/h (2 Bft) W-NW 0.00 h 60 W/m -8.5 C -6.9 C
29.12.2005 16:00 -3.4 C 62 % 1019.1 hPa 0.0 l/m 15.7 km/h (3 Bft) W-NW 0.00 h 19 W/m -9.6 C -8.7 C
29.12.2005 17:00 -4.4 C 65 % 1019.3 hPa 0.0 l/m 5.5 km/h (1 Bft) W-NW 0.00 h 0 W/m -10.0 C -6.5 C
29.12.2005 18:00 -4.4 C 67 % 1020.2 hPa 0.0 l/m 5.9 km/h (2 Bft) W-NW 0.00 h 0 W/m -9.6 C -6.5 C
29.12.2005 19:00 -4.9 C 70 % 1020.4 hPa 0.0 l/m 6.0 km/h (2 Bft) W-NW 0.00 h 0 W/m -9.6 C -7.1 C
29.12.2005 20:00 -6.1 C 71 % 1020.5 hPa 0.0 l/m 3.2 km/h (1 Bft) S-SO 0.00 h 0 W/m -10.4 C -7.3 C
29.12.2005 21:00 -6.4 C 74 % 1020.6 hPa 0.0 l/m 1.6 km/h (1 Bft) SO 0.00 h 0 W/m -10.3 C -6.8 C
29.12.2005 22:00 -7.4 C 75 % 1020.8 hPa 0.0 l/m 2.7 km/h (1 Bft) SO 0.00 h 0 W/m -11.1 C -8.5 C
29.12.2005 23:00 -8.8 C 76 % 1021.0 hPa 0.0 l/m 4.7 km/h (1 Bft) O-SO 0.00 h 0 W/m -12.2 C -10.8 C
30.12.2005 00:00 -10.3 C 76 % 1021.0 hPa 0.0 l/m 8.3 km/h (2 Bft) O-SO 0.00 h 0 W/m -13.6 C -14.8 C
30.12.2005 01:00 -11.1 C 76 % 1020.5 hPa 0.0 l/m 6.2 km/h (2 Bft) O-SO 0.00 h 0 W/m -14.4 C -14.2 C
30.12.2005 02:00 -11.2 C 76 % 1021.4 hPa 0.0 l/m 4.7 km/h (1 Bft) O-SO 0.00 h 0 W/m -14.5 C -13.6 C
30.12.2005 03:00 -9.8 C 79 % 1021.4 hPa 0.0 l/m 2.3 km/h (1 Bft) O-SO 0.00 h 0 W/m -12.8 C -10.3 C
30.12.2005 04:00 -9.2 C 79 % 1021.3 hPa 0.0 l/m 2.0 km/h (1 Bft) O-SO 0.00 h 0 W/m -12.2 C -9.8 C
30.12.2005 05:00 -8.4 C 81 % 1021.7 hPa 0.0 l/m 0.4 km/h (0 Bft) O-SO 0.00 h 0 W/m -11.1 C -8.4 C
30.12.2005 06:00 -8.1 C 81 % 1021.9 hPa 0.0 l/m 0.2 km/h (0 Bft) O-SO 0.00 h 0 W/m -10.9 C -8.1 C
30.12.2005 07:00 -8.1 C 80 % 1021.9 hPa 0.0 l/m 0.1 km/h (0 Bft) O-SO 0.00 h 0 W/m -11.0 C -8.1 C
30.12.2005 08:00 -8.2 C 79 % 1021.9 hPa 0.0 l/m 1.2 km/h (1 Bft) W-NW 0.00 h 16 W/m -11.2 C -8.7 C
30.12.2005 09:00 -7.7 C 77 % 1022.1 hPa 0.0 l/m 1.0 km/h (0 Bft) SO 0.00 h 63 W/m -10.9 C -8.0 C
30.12.2005 10:00 -7.0 C 72 % 1021.7 hPa 0.0 l/m 0.3 km/h (0 Bft) SO 0.00 h 131 W/m -11.1 C -7.0 C
30.12.2005 11:00 -6.3 C 70 % 1021.5 hPa 0.0 l/m 4.8 km/h (1 Bft) O-SO 0.03 h 159 W/m -10.8 C -8.4 C
30.12.2005 12:00 -5.9 C 68 % 1020.5 hPa 0.0 l/m 1.9 km/h (1 Bft) O-SO 0.00 h 157 W/m -10.9 C -6.5 C
30.12.2005 13:00 -6.0 C 65 % 1019.6 hPa 0.0 l/m 0.1 km/h (0 Bft) SO 0.27 h 189 W/m -11.5 C -6.0 C
30.12.2005 14:00 -6.1 C 65 % 1018.8 hPa 0.0 l/m 0.0 km/h (0 Bft) N 0.53 h 159 W/m -11.6 C -6.1 C
30.12.2005 15:00 -6.7 C 64 % 1018.6 hPa 0.0 l/m 1.4 km/h (1 Bft) SO 0.00 h 63 W/m -12.5 C -7.4 C
30.12.2005 16:00 -7.6 C 70 % 1018.5 hPa 0.0 l/m 1.6 km/h (1 Bft) SO 0.00 h 18 W/m -12.2 C -8.3 C
30.12.2005 17:00 -7.1 C 71 % 1017.2 hPa 0.0 l/m 6.6 km/h (2 Bft) SO 0.00 h 0 W/m -11.4 C -9.8 C
30.12.2005 18:00 -6.7 C 71 % 1016.5 hPa 0.0 l/m 3.7 km/h (1 Bft) O-SO 0.00 h 0 W/m -11.1 C -8.3 C
30.12.2005 19:00 -6.6 C 71 % 1015.6 hPa 0.0 l/m 1.8 km/h (1 Bft) O-SO 0.00 h 0 W/m -11.0 C -7.2 C
30.12.2005 20:00 -6.6 C 77 % 1015.0 hPa 0.3 l/m 0.1 km/h (0 Bft) N 0.00 h 0 W/m -10.0 C -6.6 C
30.12.2005 21:00 -6.7 C 79 % 1013.7 hPa 1.3 l/m 0.0 km/h (0 Bft) N 0.00 h 0 W/m -9.7 C -6.7 C
30.12.2005 22:00 -6.7 C 80 % 1012.5 hPa 1.3 l/m 0.0 km/h (0 Bft) N 0.00 h 0 W/m -9.5 C -6.7 C
30.12.2005 23:00 -6.4 C 83 % 1011.5 hPa 1.3 l/m 0.0 km/h (0 Bft) N 0.00 h 0 W/m -8.8 C -6.4 C
31.12.2005 00:00 -5.8 C 84 % 1010.3 hPa 0.6 l/m 0.1 km/h (0 Bft) O-SO 0.00 h 0 W/m -8.0 C -5.8 C
31.12.2005 01:00 -4.3 C 88 % 1009.9 hPa 1.3 l/m 0.6 km/h (0 Bft) NW 0.00 h 0 W/m -6.0 C -4.4 C
31.12.2005 02:00 -3.0 C 90 % 1009.6 hPa 3.3 l/m 0.0 km/h (0 Bft) N 0.00 h 0 W/m -4.3 C -3.0 C
31.12.2005 03:00 -1.9 C 92 % 1009.4 hPa 4.2 l/m 0.0 km/h (0 Bft) N 0.00 h 0 W/m -3.1 C -1.9 C
31.12.2005 04:00 -1.2 C 93 % 1009.4 hPa 2.0 l/m 0.0 km/h (0 Bft) N 0.00 h 0 W/m -2.2 C -1.2 C
31.12.2005 05:00 -0.6 C 94 % 1009.3 hPa 1.0 l/m 0.0 km/h (0 Bft) N 0.00 h 0 W/m -1.3 C -0.6 C
31.12.2005 06:00 -0.1 C 96 % 1009.2 hPa 0.3 l/m 0.0 km/h (0 Bft) N 0.00 h 0 W/m -0.7 C -0.1 C
31.12.2005 07:00 0.1 C 97 % 1009.2 hPa 0.0 l/m 0.0 km/h (0 Bft) N 0.00 h 0 W/m -0.3 C 0.1 C
31.12.2005 08:00 0.2 C 97 % 1009.2 hPa 0.3 l/m 0.0 km/h (0 Bft) N 0.05 h 27 W/m -0.2 C 0.2 C
31.12.2005 09:00 0.3 C 98 % 1009.2 hPa 0.0 l/m 0.0 km/h (0 Bft) N 0.32 h 105 W/m 0.0 C 0.3 C
31.12.2005 10:00 0.8 C 96 % 1009.1 hPa 0.0 l/m 0.0 km/h (0 Bft) N 0.60 h 194 W/m 0.3 C 0.8 C
31.12.2005 11:00 1.2 C 94 % 1007.9 hPa 0.0 l/m 3.0 km/h (1 Bft) O 0.03 h 147 W/m 0.4 C 0.3 C
31.12.2005 12:00 2.5 C 92 % 1006.8 hPa 0.0 l/m 1.8 km/h (1 Bft) O 0.18 h 170 W/m 1.3 C 2.0 C
31.12.2005 13:00 3.9 C 90 % 1005.9 hPa 0.0 l/m 3.1 km/h (1 Bft) SO 0.00 h 121 W/m 2.5 C 3.3 C
31.12.2005 14:00 4.6 C 93 % 1005.6 hPa 1.6 l/m 3.5 km/h (1 Bft) NW 0.00 h 43 W/m 3.5 C 3.8 C
31.12.2005 15:00 4.7 C 94 % 1006.5 hPa 1.6 l/m 1.8 km/h (1 Bft) S-SO 0.00 h 20 W/m 3.9 C 4.5 C
31.12.2005 16:00 4.0 C 96 % 1006.6 hPa 0.6 l/m 2.5 km/h (1 Bft) SO 0.00 h 9 W/m 3.4 C 3.4 C
31.12.2005 17:00 3.5 C 98 % 1006.0 hPa 0.0 l/m 4.3 km/h (1 Bft) O-SO 0.00 h 0 W/m 3.2 C 2.4 C
31.12.2005 18:00 3.8 C 98 % 1005.6 hPa 3.3 l/m 7.7 km/h (2 Bft) SO 0.00 h 0 W/m 3.6 C 1.9 C
31.12.2005 19:00 4.0 C 99 % 1005.6 hPa 2.9 l/m 7.8 km/h (2 Bft) SO 0.00 h 0 W/m 3.8 C 2.2 C
31.12.2005 20:00 3.2 C 99 % 1006.2 hPa 0.3 l/m 12.6 km/h (3 Bft) SO 0.00 h 0 W/m 3.1 C 0.2 C
31.12.2005 21:00 3.0 C 98 % 1006.7 hPa 1.6 l/m 12.1 km/h (2 Bft) SO 0.00 h 0 W/m 2.7 C -0.0 C
31.12.2005 22:00 2.8 C 96 % 1006.4 hPa 0.3 l/m 1.7 km/h (1 Bft) SO 0.00 h 0 W/m 2.3 C 2.6 C
31.12.2005 23:00 2.4 C 95 % 1005.8 hPa 0.3 l/m 5.7 km/h (1 Bft) O-SO 0.00 h 0 W/m 1.6 C 0.9 C
01.01.2006 00:00 2.4 C 96 % 1005.5 hPa 1.3 l/m 6.0 km/h (2 Bft) O-SO 0.00 h 0 W/m 1.8 C 1.0 C
01.01.2006 01:00 2.4 C 97 % 1004.7 hPa 0.0 l/m 2.4 km/h (1 Bft) O 0.00 h 0 W/m 1.9 C 2.0 C
01.01.2006 02:00 2.3 C 97 % 1004.7 hPa 0.6 l/m 1.9 km/h (1 Bft) O-SO 0.00 h 0 W/m 1.9 C 1.9 C
01.01.2006 03:00 2.6 C 99 % 1005.4 hPa 1.0 l/m 7.5 km/h (2 Bft) W-NW 0.00 h 0 W/m 2.5 C 0.9 C
01.01.2006 04:00 3.1 C 100 % 1005.7 hPa 0.0 l/m 23.7 km/h (4 Bft) W-NW 0.00 h 0 W/m 3.1 C -1.7 C
01.01.2006 05:00 2.8 C 98 % 1006.7 hPa 0.3 l/m 7.5 km/h (2 Bft) W-NW 0.00 h 0 W/m 2.6 C 1.2 C
01.01.2006 06:00 2.7 C 95 % 1006.7 hPa 0.0 l/m 3.9 km/h (1 Bft) SO 0.00 h 0 W/m 2.1 C 1.8 C
01.01.2006 07:00 2.7 C 95 % 1007.6 hPa 0.0 l/m 4.0 km/h (1 Bft) W 0.00 h 0 W/m 2.0 C 1.7 C
01.01.2006 08:00 2.4 C 95 % 1007.8 hPa 0.0 l/m 3.7 km/h (1 Bft) SO 0.00 h 10 W/m 1.7 C 1.4 C
01.01.2006 09:00 2.6 C 94 % 1008.6 hPa 0.0 l/m 2.6 km/h (1 Bft) SO 0.00 h 35 W/m 1.7 C 2.0 C
01.01.2006 10:00 3.2 C 91 % 1008.8 hPa 0.0 l/m 5.3 km/h (1 Bft) SO 0.33 h 139 W/m 1.9 C 2.0 C
01.01.2006 11:00 3.8 C 88 % 1007.6 hPa 0.0 l/m 0.9 km/h (0 Bft) S 0.70 h 292 W/m 2.0 C 3.7 C
01.01.2006 12:00 5.2 C 75 % 1007.4 hPa 0.0 l/m 2.1 km/h (1 Bft) S 0.93 h 407 W/m 1.1 C 4.9 C
01.01.2006 13:00 5.8 C 66 % 1006.6 hPa 0.0 l/m 1.6 km/h (1 Bft) W 0.93 h 412 W/m -0.0 C 5.6 C
01.01.2006 14:00 6.2 C 58 % 1006.3 hPa 0.0 l/m 2.5 km/h (1 Bft) W 1.00 h 317 W/m -1.4 C 5.7 C
01.01.2006 15:00 5.6 C 58 % 1006.3 hPa 0.0 l/m 1.5 km/h (1 Bft) W 0.47 h 178 W/m -1.9 C 5.5 C
Min-Datum _ 30.12.05 01.01.06 27.12.05 - 26.12.05 - - - 30.12.05 30.12.05
_ Min-Zeit 02:09 14:43 12:50 - 00:01 - - - 02:09 01:03
Minimum _ -11.9 C 57 % 1004.1 hPa - 0.0 km/h (0 Bft) - - - -15.4 C -17.8 C
Max-Datum _ 01.01.06 01.01.06 30.12.05 31.12.05 27.12.05 - 31.12.05 01.01.06 31.12.05 01.01.06
_ Max-Zeit 13:53 01:13 09:09 03:03 17:47 - 10:34 12:25 15:18 13:53
Maximum _ 6.3 C 100 % 1022.9 hPa 4.2 l/m 34.6 km/h
W-NW (5 Bft)
- 0.07 h 590 W/m 4.2 C 6.3 C
Durchschnitt _ -2.4 C 81 % 1011.7 hPa #36.7 l/m 3.7 km/h (1 Bft) W-NW #6:59 h 99 W/m -5.3 C -3.6 C
© Kaiko 2005